sensor_id;sensor_type;location;lat;lon;timestamp;temperature;humidity
39919;DHT22;25589;51.552;13.424;2023-08-20T00:00:11;26.20;99.90
39919;DHT22;25589;51.552;13.424;2023-08-20T00:02:42;26.20;99.90
39919;DHT22;25589;51.552;13.424;2023-08-20T00:05:08;26.10;99.90
39919;DHT22;25589;51.552;13.424;2023-08-20T00:07:34;26.10;99.90
39919;DHT22;25589;51.552;13.424;2023-08-20T00:10:00;26.20;99.90
39919;DHT22;25589;51.552;13.424;2023-08-20T00:12:26;26.10;99.90
39919;DHT22;25589;51.552;13.424;2023-08-20T00:14:59;26.10;99.90
39919;DHT22;25589;51.552;13.424;2023-08-20T00:17:31;26.20;99.90
39919;DHT22;25589;51.552;13.424;2023-08-20T00:19:57;26.10;99.90
39919;DHT22;25589;51.552;13.424;2023-08-20T00:22:23;26.20;99.90
39919;DHT22;25589;51.552;13.424;2023-08-20T00:24:51;26.20;99.90
39919;DHT22;25589;51.552;13.424;2023-08-20T00:27:17;26.10;99.90
39919;DHT22;25589;51.552;13.424;2023-08-20T00:29:43;26.10;99.90
39919;DHT22;25589;51.552;13.424;2023-08-20T00:32:08;26.10;99.90
39919;DHT22;25589;51.552;13.424;2023-08-20T00:34:34;26.00;99.90
39919;DHT22;25589;51.552;13.424;2023-08-20T00:37:00;26.00;99.90
39919;DHT22;25589;51.552;13.424;2023-08-20T00:39:26;26.00;99.90
39919;DHT22;25589;51.552;13.424;2023-08-20T00:41:52;26.00;99.90
39919;DHT22;25589;51.552;13.424;2023-08-20T00:44:18;26.00;99.90
39919;DHT22;25589;51.552;13.424;2023-08-20T00:46:43;26.00;99.90
39919;DHT22;25589;51.552;13.424;2023-08-20T00:49:09;26.00;99.90
39919;DHT22;25589;51.552;13.424;2023-08-20T00:51:35;26.00;99.90
39919;DHT22;25589;51.552;13.424;2023-08-20T00:54:02;26.00;99.90
39919;DHT22;25589;51.552;13.424;2023-08-20T00:56:28;26.10;99.90
39919;DHT22;25589;51.552;13.424;2023-08-20T00:58:55;26.00;99.90
39919;DHT22;25589;51.552;13.424;2023-08-20T01:01:22;26.00;99.90
39919;DHT22;25589;51.552;13.424;2023-08-20T01:03:47;26.00;99.90
39919;DHT22;25589;51.552;13.424;2023-08-20T01:09:01;26.00;99.90
39919;DHT22;25589;51.552;13.424;2023-08-20T01:11:33;26.00;99.90
39919;DHT22;25589;51.552;13.424;2023-08-20T01:14:01;25.90;99.90
39919;DHT22;25589;51.552;13.424;2023-08-20T01:16:27;25.90;99.90
39919;DHT22;25589;51.552;13.424;2023-08-20T01:18:53;25.90;99.90
39919;DHT22;25589;51.552;13.424;2023-08-20T01:21:38;25.70;99.90
39919;DHT22;25589;51.552;13.424;2023-08-20T01:24:05;25.50;99.90
39919;DHT22;25589;51.552;13.424;2023-08-20T01:29:15;25.20;99.90
39919;DHT22;25589;51.552;13.424;2023-08-20T01:31:44;25.00;99.90
39919;DHT22;25589;51.552;13.424;2023-08-20T01:34:11;25.10;99.90
39919;DHT22;25589;51.552;13.424;2023-08-20T01:36:37;25.10;99.90
39919;DHT22;25589;51.552;13.424;2023-08-20T01:39:03;25.10;99.90
39919;DHT22;25589;51.552;13.424;2023-08-20T01:41:30;25.10;99.90
39919;DHT22;25589;51.552;13.424;2023-08-20T01:43:56;25.20;99.90
39919;DHT22;25589;51.552;13.424;2023-08-20T01:46:21;25.20;99.90
39919;DHT22;25589;51.552;13.424;2023-08-20T01:48:50;25.10;99.90
39919;DHT22;25589;51.552;13.424;2023-08-20T01:51:16;25.10;99.90
39919;DHT22;25589;51.552;13.424;2023-08-20T01:53:41;25.00;99.90
39919;DHT22;25589;51.552;13.424;2023-08-20T01:56:13;25.00;99.90
39919;DHT22;25589;51.552;13.424;2023-08-20T01:58:39;25.00;99.90
39919;DHT22;25589;51.552;13.424;2023-08-20T02:01:05;24.90;99.90
39919;DHT22;25589;51.552;13.424;2023-08-20T02:03:31;24.80;99.90
39919;DHT22;25589;51.552;13.424;2023-08-20T02:05:56;24.80;99.90
39919;DHT22;25589;51.552;13.424;2023-08-20T02:08:22;24.80;99.90
39919;DHT22;25589;51.552;13.424;2023-08-20T02:10:48;24.80;99.90
39919;DHT22;25589;51.552;13.424;2023-08-20T02:13:14;24.80;99.90
39919;DHT22;25589;51.552;13.424;2023-08-20T02:15:39;24.70;99.90
39919;DHT22;25589;51.552;13.424;2023-08-20T02:18:05;24.60;99.90
39919;DHT22;25589;51.552;13.424;2023-08-20T02:20:30;24.60;99.90
39919;DHT22;25589;51.552;13.424;2023-08-20T02:22:56;24.60;99.90
39919;DHT22;25589;51.552;13.424;2023-08-20T02:25:23;24.60;99.90
39919;DHT22;25589;51.552;13.424;2023-08-20T02:27:49;24.50;99.90
39919;DHT22;25589;51.552;13.424;2023-08-20T02:30:14;24.50;99.90
39919;DHT22;25589;51.552;13.424;2023-08-20T02:32:40;24.40;99.90
39919;DHT22;25589;51.552;13.424;2023-08-20T02:35:05;24.40;99.90
39919;DHT22;25589;51.552;13.424;2023-08-20T02:37:32;24.40;99.90
39919;DHT22;25589;51.552;13.424;2023-08-20T02:39:57;24.40;99.90
39919;DHT22;25589;51.552;13.424;2023-08-20T02:42:23;24.40;99.90
39919;DHT22;25589;51.552;13.424;2023-08-20T02:44:49;24.40;99.90
39919;DHT22;25589;51.552;13.424;2023-08-20T02:47:14;24.30;99.90
39919;DHT22;25589;51.552;13.424;2023-08-20T02:49:40;24.30;99.90
39919;DHT22;25589;51.552;13.424;2023-08-20T02:52:05;24.30;99.90
39919;DHT22;25589;51.552;13.424;2023-08-20T02:54:31;24.30;99.90
39919;DHT22;25589;51.552;13.424;2023-08-20T02:56:58;24.30;99.90
39919;DHT22;25589;51.552;13.424;2023-08-20T02:59:24;24.30;99.90
39919;DHT22;25589;51.552;13.424;2023-08-20T03:01:49;24.30;99.90
39919;DHT22;25589;51.552;13.424;2023-08-20T03:04:15;24.30;99.90
39919;DHT22;25589;51.552;13.424;2023-08-20T03:06:41;24.30;99.90
39919;DHT22;25589;51.552;13.424;2023-08-20T03:09:06;24.30;99.90
39919;DHT22;25589;51.552;13.424;2023-08-20T03:11:32;24.30;99.90
39919;DHT22;25589;51.552;13.424;2023-08-20T03:13:58;24.30;99.90
39919;DHT22;25589;51.552;13.424;2023-08-20T03:16:23;24.30;99.90
39919;DHT22;25589;51.552;13.424;2023-08-20T03:18:49;24.30;99.90
39919;DHT22;25589;51.552;13.424;2023-08-20T03:21:14;24.30;99.90
39919;DHT22;25589;51.552;13.424;2023-08-20T03:23:40;24.30;99.90
39919;DHT22;25589;51.552;13.424;2023-08-20T03:26:05;24.30;99.90
39919;DHT22;25589;51.552;13.424;2023-08-20T03:28:31;24.30;99.90
39919;DHT22;25589;51.552;13.424;2023-08-20T03:31:01;24.30;99.90
39919;DHT22;25589;51.552;13.424;2023-08-20T03:33:30;24.30;99.90
39919;DHT22;25589;51.552;13.424;2023-08-20T03:35:56;24.20;99.90
39919;DHT22;25589;51.552;13.424;2023-08-20T03:38:22;24.20;99.90
39919;DHT22;25589;51.552;13.424;2023-08-20T03:40:48;24.20;99.90
39919;DHT22;25589;51.552;13.424;2023-08-20T03:43:14;24.20;99.90
39919;DHT22;25589;51.552;13.424;2023-08-20T03:45:40;24.20;99.90
39919;DHT22;25589;51.552;13.424;2023-08-20T03:48:06;24.20;99.90
39919;DHT22;25589;51.552;13.424;2023-08-20T03:50:31;24.10;99.90
39919;DHT22;25589;51.552;13.424;2023-08-20T03:52:57;24.10;99.90
39919;DHT22;25589;51.552;13.424;2023-08-20T03:55:23;24.00;99.90
39919;DHT22;25589;51.552;13.424;2023-08-20T03:57:48;24.00;99.90
39919;DHT22;25589;51.552;13.424;2023-08-20T04:00:14;24.00;99.90
39919;DHT22;25589;51.552;13.424;2023-08-20T04:02:44;24.10;99.90
39919;DHT22;25589;51.552;13.424;2023-08-20T04:05:10;24.10;99.90
39919;DHT22;25589;51.552;13.424;2023-08-20T04:07:35;24.10;99.90
39919;DHT22;25589;51.552;13.424;2023-08-20T04:10:01;24.10;99.90
39919;DHT22;25589;51.552;13.424;2023-08-20T04:12:27;24.10;99.90
39919;DHT22;25589;51.552;13.424;2023-08-20T04:14:55;24.10;99.90
39919;DHT22;25589;51.552;13.424;2023-08-20T04:17:21;24.00;99.90
39919;DHT22;25589;51.552;13.424;2023-08-20T04:19:47;24.00;99.90
39919;DHT22;25589;51.552;13.424;2023-08-20T04:22:12;23.90;99.90
39919;DHT22;25589;51.552;13.424;2023-08-20T04:24:38;24.00;99.90
39919;DHT22;25589;51.552;13.424;2023-08-20T04:27:04;24.10;99.90
39919;DHT22;25589;51.552;13.424;2023-08-20T04:29:31;24.00;99.90
39919;DHT22;25589;51.552;13.424;2023-08-20T04:31:56;23.90;99.90
39919;DHT22;25589;51.552;13.424;2023-08-20T04:34:22;23.90;99.90
39919;DHT22;25589;51.552;13.424;2023-08-20T04:36:51;23.90;99.90
39919;DHT22;25589;51.552;13.424;2023-08-20T04:39:18;23.90;99.90
39919;DHT22;25589;51.552;13.424;2023-08-20T04:41:47;23.90;99.90
39919;DHT22;25589;51.552;13.424;2023-08-20T04:44:15;23.90;99.90
39919;DHT22;25589;51.552;13.424;2023-08-20T04:46:42;23.90;99.90
39919;DHT22;25589;51.552;13.424;2023-08-20T04:49:08;24.00;99.90
39919;DHT22;25589;51.552;13.424;2023-08-20T04:51:34;24.00;99.90
39919;DHT22;25589;51.552;13.424;2023-08-20T04:54:00;24.00;99.90
39919;DHT22;25589;51.552;13.424;2023-08-20T04:56:26;23.90;99.90
39919;DHT22;25589;51.552;13.424;2023-08-20T04:58:53;23.90;99.90
39919;DHT22;25589;51.552;13.424;2023-08-20T05:01:39;24.00;99.90
39919;DHT22;25589;51.552;13.424;2023-08-20T05:04:05;24.00;99.90
39919;DHT22;25589;51.552;13.424;2023-08-20T05:06:31;24.00;99.90
39919;DHT22;25589;51.552;13.424;2023-08-20T05:08:56;24.00;99.90
39919;DHT22;25589;51.552;13.424;2023-08-20T05:11:22;24.10;99.90
39919;DHT22;25589;51.552;13.424;2023-08-20T05:13:49;24.10;99.90
39919;DHT22;25589;51.552;13.424;2023-08-20T05:16:15;24.20;99.90
39919;DHT22;25589;51.552;13.424;2023-08-20T05:18:41;24.20;99.90
39919;DHT22;25589;51.552;13.424;2023-08-20T05:21:07;24.10;99.90
39919;DHT22;25589;51.552;13.424;2023-08-20T05:23:32;24.20;99.90
39919;DHT22;25589;51.552;13.424;2023-08-20T05:25:59;24.20;99.90
39919;DHT22;25589;51.552;13.424;2023-08-20T05:28:24;24.20;99.90
39919;DHT22;25589;51.552;13.424;2023-08-20T05:30:56;24.30;99.90
39919;DHT22;25589;51.552;13.424;2023-08-20T05:33:23;24.30;99.90
39919;DHT22;25589;51.552;13.424;2023-08-20T05:35:49;24.30;99.90
39919;DHT22;25589;51.552;13.424;2023-08-20T05:38:15;24.30;99.90
39919;DHT22;25589;51.552;13.424;2023-08-20T05:40:41;24.30;99.90
39919;DHT22;25589;51.552;13.424;2023-08-20T05:43:06;24.50;99.90
39919;DHT22;25589;51.552;13.424;2023-08-20T05:45:32;24.40;99.90
39919;DHT22;25589;51.552;13.424;2023-08-20T05:47:59;24.40;99.90
39919;DHT22;25589;51.552;13.424;2023-08-20T05:50:25;24.40;99.90
39919;DHT22;25589;51.552;13.424;2023-08-20T05:52:50;24.30;99.90
39919;DHT22;25589;51.552;13.424;2023-08-20T05:55:16;24.40;99.90
39919;DHT22;25589;51.552;13.424;2023-08-20T05:57:42;24.40;99.90
39919;DHT22;25589;51.552;13.424;2023-08-20T06:00:09;24.30;99.90
39919;DHT22;25589;51.552;13.424;2023-08-20T06:02:40;24.30;99.90
39919;DHT22;25589;51.552;13.424;2023-08-20T06:05:07;24.30;99.90
39919;DHT22;25589;51.552;13.424;2023-08-20T06:07:33;24.20;99.90
39919;DHT22;25589;51.552;13.424;2023-08-20T06:09:59;24.20;99.90
39919;DHT22;25589;51.552;13.424;2023-08-20T06:12:24;24.30;99.90
39919;DHT22;25589;51.552;13.424;2023-08-20T06:14:50;24.30;99.90
39919;DHT22;25589;51.552;13.424;2023-08-20T06:17:15;24.30;99.90
39919;DHT22;25589;51.552;13.424;2023-08-20T06:19:41;24.30;99.90
39919;DHT22;25589;51.552;13.424;2023-08-20T06:22:07;24.20;99.90
39919;DHT22;25589;51.552;13.424;2023-08-20T06:24:32;24.20;99.90
39919;DHT22;25589;51.552;13.424;2023-08-20T06:26:58;24.10;99.90
39919;DHT22;25589;51.552;13.424;2023-08-20T06:29:24;24.10;99.90
39919;DHT22;25589;51.552;13.424;2023-08-20T06:31:49;24.20;99.90
39919;DHT22;25589;51.552;13.424;2023-08-20T06:34:16;24.20;99.90
39919;DHT22;25589;51.552;13.424;2023-08-20T06:36:41;24.30;99.90
39919;DHT22;25589;51.552;13.424;2023-08-20T06:39:07;24.20;99.90
39919;DHT22;25589;51.552;13.424;2023-08-20T06:41:34;24.20;99.90
39919;DHT22;25589;51.552;13.424;2023-08-20T06:43:59;24.30;99.90
39919;DHT22;25589;51.552;13.424;2023-08-20T06:46:25;24.30;99.90
39919;DHT22;25589;51.552;13.424;2023-08-20T06:48:50;24.40;99.90
39919;DHT22;25589;51.552;13.424;2023-08-20T06:51:19;24.40;99.90
39919;DHT22;25589;51.552;13.424;2023-08-20T06:53:45;24.50;99.90
39919;DHT22;25589;51.552;13.424;2023-08-20T06:56:11;24.60;99.90
39919;DHT22;25589;51.552;13.424;2023-08-20T06:58:38;24.60;99.90
39919;DHT22;25589;51.552;13.424;2023-08-20T07:01:04;24.70;99.90
39919;DHT22;25589;51.552;13.424;2023-08-20T07:03:34;24.80;99.90
39919;DHT22;25589;51.552;13.424;2023-08-20T07:06:00;24.80;99.90
39919;DHT22;25589;51.552;13.424;2023-08-20T07:08:26;24.80;99.90
39919;DHT22;25589;51.552;13.424;2023-08-20T07:10:51;24.80;99.90
39919;DHT22;25589;51.552;13.424;2023-08-20T07:13:17;24.80;99.90
39919;DHT22;25589;51.552;13.424;2023-08-20T07:15:43;24.80;99.90
39919;DHT22;25589;51.552;13.424;2023-08-20T07:18:08;24.80;99.90
39919;DHT22;25589;51.552;13.424;2023-08-20T07:20:34;24.80;99.90
39919;DHT22;25589;51.552;13.424;2023-08-20T07:22:59;24.90;99.90
39919;DHT22;25589;51.552;13.424;2023-08-20T07:25:25;24.90;99.90
39919;DHT22;25589;51.552;13.424;2023-08-20T07:27:50;24.80;99.90
39919;DHT22;25589;51.552;13.424;2023-08-20T07:30:16;24.80;99.90
39919;DHT22;25589;51.552;13.424;2023-08-20T07:32:42;24.90;99.90
39919;DHT22;25589;51.552;13.424;2023-08-20T07:35:07;25.00;99.90
39919;DHT22;25589;51.552;13.424;2023-08-20T07:37:34;25.10;99.90
39919;DHT22;25589;51.552;13.424;2023-08-20T07:39:59;25.20;99.90
39919;DHT22;25589;51.552;13.424;2023-08-20T07:42:25;25.40;99.90
39919;DHT22;25589;51.552;13.424;2023-08-20T07:44:50;25.40;99.90
39919;DHT22;25589;51.552;13.424;2023-08-20T07:47:16;25.30;99.90
39919;DHT22;25589;51.552;13.424;2023-08-20T07:49:42;25.20;99.90
39919;DHT22;25589;51.552;13.424;2023-08-20T07:52:08;25.10;99.90
39919;DHT22;25589;51.552;13.424;2023-08-20T07:54:34;25.00;99.90
39919;DHT22;25589;51.552;13.424;2023-08-20T07:57:00;24.90;99.90
39919;DHT22;25589;51.552;13.424;2023-08-20T07:59:25;24.90;99.90
39919;DHT22;25589;51.552;13.424;2023-08-20T08:01:51;24.90;99.90
39919;DHT22;25589;51.552;13.424;2023-08-20T08:04:16;25.10;99.90
39919;DHT22;25589;51.552;13.424;2023-08-20T08:06:42;25.20;99.90
39919;DHT22;25589;51.552;13.424;2023-08-20T08:09:30;25.40;99.90
39919;DHT22;25589;51.552;13.424;2023-08-20T08:11:55;25.60;99.90
39919;DHT22;25589;51.552;13.424;2023-08-20T08:14:21;25.70;99.90
39919;DHT22;25589;51.552;13.424;2023-08-20T08:16:47;26.00;99.90
39919;DHT22;25589;51.552;13.424;2023-08-20T08:19:13;26.10;99.90
39919;DHT22;25589;51.552;13.424;2023-08-20T08:21:39;26.10;99.90
39919;DHT22;25589;51.552;13.424;2023-08-20T08:24:05;26.00;99.90
39919;DHT22;25589;51.552;13.424;2023-08-20T08:26:32;26.10;99.90
39919;DHT22;25589;51.552;13.424;2023-08-20T08:28:58;26.00;99.90
39919;DHT22;25589;51.552;13.424;2023-08-20T08:31:24;25.90;99.90
39919;DHT22;25589;51.552;13.424;2023-08-20T08:33:49;25.70;99.90
39919;DHT22;25589;51.552;13.424;2023-08-20T08:36:15;25.70;99.90
39919;DHT22;25589;51.552;13.424;2023-08-20T08:38:42;25.60;99.90
39919;DHT22;25589;51.552;13.424;2023-08-20T08:41:11;25.80;99.90
39919;DHT22;25589;51.552;13.424;2023-08-20T08:43:40;26.00;99.90
39919;DHT22;25589;51.552;13.424;2023-08-20T08:46:07;26.00;99.90
39919;DHT22;25589;51.552;13.424;2023-08-20T08:48:35;26.20;99.90
39919;DHT22;25589;51.552;13.424;2023-08-20T08:51:01;26.40;99.90
39919;DHT22;25589;51.552;13.424;2023-08-20T08:53:27;26.40;99.90
39919;DHT22;25589;51.552;13.424;2023-08-20T08:55:53;26.50;99.90
39919;DHT22;25589;51.552;13.424;2023-08-20T08:58:19;26.60;99.90
39919;DHT22;25589;51.552;13.424;2023-08-20T09:00:44;26.80;99.90
39919;DHT22;25589;51.552;13.424;2023-08-20T09:03:10;26.80;99.90
39919;DHT22;25589;51.552;13.424;2023-08-20T09:05:58;26.80;99.90
39919;DHT22;25589;51.552;13.424;2023-08-20T09:08:32;26.90;99.90
39919;DHT22;25589;51.552;13.424;2023-08-20T09:11:01;27.00;99.90
39919;DHT22;25589;51.552;13.424;2023-08-20T09:15:58;26.90;99.90
39919;DHT22;25589;51.552;13.424;2023-08-20T09:18:24;27.00;99.90
39919;DHT22;25589;51.552;13.424;2023-08-20T09:20:50;27.00;99.90
39919;DHT22;25589;51.552;13.424;2023-08-20T09:23:16;26.90;99.90
39919;DHT22;25589;51.552;13.424;2023-08-20T09:25:42;26.80;99.90
39919;DHT22;25589;51.552;13.424;2023-08-20T09:28:08;26.80;99.90
39919;DHT22;25589;51.552;13.424;2023-08-20T09:30:34;26.90;99.90
39919;DHT22;25589;51.552;13.424;2023-08-20T09:33:13;27.10;99.90
39919;DHT22;25589;51.552;13.424;2023-08-20T09:35:51;27.30;99.90
39919;DHT22;25589;51.552;13.424;2023-08-20T09:38:20;27.50;99.90
39919;DHT22;25589;51.552;13.424;2023-08-20T09:40:50;27.50;99.90
39919;DHT22;25589;51.552;13.424;2023-08-20T09:43:16;27.70;99.90
39919;DHT22;25589;51.552;13.424;2023-08-20T09:45:43;27.90;99.90
39919;DHT22;25589;51.552;13.424;2023-08-20T09:48:09;28.00;99.90
39919;DHT22;25589;51.552;13.424;2023-08-20T09:50:36;28.00;99.90
39919;DHT22;25589;51.552;13.424;2023-08-20T09:53:15;27.80;99.90
39919;DHT22;25589;51.552;13.424;2023-08-20T09:55:43;28.10;99.90
39919;DHT22;25589;51.552;13.424;2023-08-20T09:58:10;28.30;99.90
39919;DHT22;25589;51.552;13.424;2023-08-20T10:00:36;28.40;99.90
39919;DHT22;25589;51.552;13.424;2023-08-20T10:03:03;28.50;99.90
39919;DHT22;25589;51.552;13.424;2023-08-20T10:05:29;28.50;99.90
39919;DHT22;25589;51.552;13.424;2023-08-20T10:07:55;28.60;99.90
39919;DHT22;25589;51.552;13.424;2023-08-20T10:10:23;28.70;99.90
39919;DHT22;25589;51.552;13.424;2023-08-20T10:12:50;28.80;99.90
39919;DHT22;25589;51.552;13.424;2023-08-20T10:15:16;28.70;99.90
39919;DHT22;25589;51.552;13.424;2023-08-20T10:17:44;28.70;99.90
39919;DHT22;25589;51.552;13.424;2023-08-20T10:20:12;28.80;99.90
39919;DHT22;25589;51.552;13.424;2023-08-20T10:22:42;29.10;99.90
39919;DHT22;25589;51.552;13.424;2023-08-20T10:25:12;29.20;99.90
39919;DHT22;25589;51.552;13.424;2023-08-20T10:27:46;29.30;99.90
39919;DHT22;25589;51.552;13.424;2023-08-20T10:30:19;29.60;99.90
39919;DHT22;25589;51.552;13.424;2023-08-20T10:32:51;29.50;99.90
39919;DHT22;25589;51.552;13.424;2023-08-20T10:35:28;29.60;99.90
39919;DHT22;25589;51.552;13.424;2023-08-20T10:38:02;29.90;99.90
39919;DHT22;25589;51.552;13.424;2023-08-20T10:46:15;30.40;99.90
39919;DHT22;25589;51.552;13.424;2023-08-20T10:48:42;30.50;99.90
39919;DHT22;25589;51.552;13.424;2023-08-20T10:51:25;30.50;99.90
39919;DHT22;25589;51.552;13.424;2023-08-20T10:56:46;31.00;99.90
39919;DHT22;25589;51.552;13.424;2023-08-20T10:59:23;31.20;99.90
39919;DHT22;25589;51.552;13.424;2023-08-20T11:01:52;31.20;99.90
39919;DHT22;25589;51.552;13.424;2023-08-20T11:04:21;31.10;99.90
39919;DHT22;25589;51.552;13.424;2023-08-20T11:06:49;31.10;99.90
39919;DHT22;25589;51.552;13.424;2023-08-20T11:09:17;31.30;99.90
39919;DHT22;25589;51.552;13.424;2023-08-20T11:11:43;31.60;99.90
39919;DHT22;25589;51.552;13.424;2023-08-20T11:14:13;32.00;99.90
39919;DHT22;25589;51.552;13.424;2023-08-20T11:16:42;32.10;99.90
39919;DHT22;25589;51.552;13.424;2023-08-20T11:19:12;32.20;99.90
39919;DHT22;25589;51.552;13.424;2023-08-20T11:21:40;32.90;99.90
39919;DHT22;25589;51.552;13.424;2023-08-20T11:24:06;33.60;99.90
39919;DHT22;25589;51.552;13.424;2023-08-20T11:26:33;33.80;99.90
39919;DHT22;25589;51.552;13.424;2023-08-20T11:29:00;34.00;99.90
39919;DHT22;25589;51.552;13.424;2023-08-20T11:31:25;34.70;98.90
39919;DHT22;25589;51.552;13.424;2023-08-20T11:33:51;35.20;97.90
39919;DHT22;25589;51.552;13.424;2023-08-20T11:36:17;35.60;96.90
39919;DHT22;25589;51.552;13.424;2023-08-20T11:38:51;36.00;95.90
39919;DHT22;25589;51.552;13.424;2023-08-20T11:41:20;35.90;94.90
39919;DHT22;25589;51.552;13.424;2023-08-20T11:43:47;35.90;94.30
39919;DHT22;25589;51.552;13.424;2023-08-20T11:46:19;36.30;93.40
39919;DHT22;25589;51.552;13.424;2023-08-20T11:51:26;36.00;92.60
39919;DHT22;25589;51.552;13.424;2023-08-20T11:53:52;36.10;92.50
39919;DHT22;25589;51.552;13.424;2023-08-20T11:56:17;36.10;91.70
39919;DHT22;25589;51.552;13.424;2023-08-20T11:58:43;35.70;91.70
39919;DHT22;25589;51.552;13.424;2023-08-20T12:01:08;35.60;92.10
39919;DHT22;25589;51.552;13.424;2023-08-20T12:03:37;35.80;91.30
39919;DHT22;25589;51.552;13.424;2023-08-20T12:06:21;35.90;91.30
39919;DHT22;25589;51.552;13.424;2023-08-20T12:08:48;36.10;91.60
39919;DHT22;25589;51.552;13.424;2023-08-20T12:11:13;36.20;89.10
39919;DHT22;25589;51.552;13.424;2023-08-20T12:13:40;36.50;89.30
39919;DHT22;25589;51.552;13.424;2023-08-20T12:16:06;36.60;88.80
39919;DHT22;25589;51.552;13.424;2023-08-20T12:18:32;37.30;86.30
39919;DHT22;25589;51.552;13.424;2023-08-20T12:20:58;37.80;84.30
39919;DHT22;25589;51.552;13.424;2023-08-20T12:23:24;38.30;82.80
39919;DHT22;25589;51.552;13.424;2023-08-20T12:25:50;38.40;81.70
39919;DHT22;25589;51.552;13.424;2023-08-20T12:28:16;38.30;81.50
39919;DHT22;25589;51.552;13.424;2023-08-20T12:30:43;37.90;80.40
39919;DHT22;25589;51.552;13.424;2023-08-20T12:33:08;37.40;81.20
39919;DHT22;25589;51.552;13.424;2023-08-20T12:35:34;37.00;80.90
39919;DHT22;25589;51.552;13.424;2023-08-20T12:38:00;36.90;80.00
39919;DHT22;25589;51.552;13.424;2023-08-20T12:40:25;37.20;77.90
39919;DHT22;25589;51.552;13.424;2023-08-20T12:42:51;37.70;77.70
39919;DHT22;25589;51.552;13.424;2023-08-20T12:45:17;37.90;76.70
39919;DHT22;25589;51.552;13.424;2023-08-20T12:47:42;38.30;75.40
39919;DHT22;25589;51.552;13.424;2023-08-20T12:50:08;38.60;72.60
39919;DHT22;25589;51.552;13.424;2023-08-20T12:52:34;38.70;73.30
39919;DHT22;25589;51.552;13.424;2023-08-20T12:54:59;38.90;72.10
39919;DHT22;25589;51.552;13.424;2023-08-20T12:57:25;38.90;72.00
39919;DHT22;25589;51.552;13.424;2023-08-20T12:59:50;38.80;71.10
39919;DHT22;25589;51.552;13.424;2023-08-20T13:02:17;38.80;71.80
39919;DHT22;25589;51.552;13.424;2023-08-20T13:04:43;39.40;70.10
39919;DHT22;25589;51.552;13.424;2023-08-20T13:07:08;39.50;70.10
39919;DHT22;25589;51.552;13.424;2023-08-20T13:09:34;39.50;69.40
39919;DHT22;25589;51.552;13.424;2023-08-20T13:12:01;39.70;68.10
39919;DHT22;25589;51.552;13.424;2023-08-20T13:14:29;39.90;67.40
39919;DHT22;25589;51.552;13.424;2023-08-20T13:16:55;40.30;66.00
39919;DHT22;25589;51.552;13.424;2023-08-20T13:19:22;40.40;65.60
39919;DHT22;25589;51.552;13.424;2023-08-20T13:21:47;40.40;65.10
39919;DHT22;25589;51.552;13.424;2023-08-20T13:24:13;40.40;64.30
39919;DHT22;25589;51.552;13.424;2023-08-20T13:26:39;39.90;65.00
39919;DHT22;25589;51.552;13.424;2023-08-20T13:29:09;40.00;64.80
39919;DHT22;25589;51.552;13.424;2023-08-20T13:31:35;40.30;62.90
39919;DHT22;25589;51.552;13.424;2023-08-20T13:34:03;40.60;62.70
39919;DHT22;25589;51.552;13.424;2023-08-20T13:36:28;40.90;60.90
39919;DHT22;25589;51.552;13.424;2023-08-20T13:38:55;41.10;60.00
39919;DHT22;25589;51.552;13.424;2023-08-20T13:41:20;41.00;59.90
39919;DHT22;25589;51.552;13.424;2023-08-20T13:43:46;40.80;59.80
39919;DHT22;25589;51.552;13.424;2023-08-20T13:46:12;40.80;60.50
39919;DHT22;25589;51.552;13.424;2023-08-20T13:48:38;40.40;60.80
39919;DHT22;25589;51.552;13.424;2023-08-20T13:51:03;39.90;62.00
39919;DHT22;25589;51.552;13.424;2023-08-20T13:53:29;39.80;61.60
39919;DHT22;25589;51.552;13.424;2023-08-20T13:55:54;39.70;63.30
39919;DHT22;25589;51.552;13.424;2023-08-20T13:58:21;40.00;61.00
39919;DHT22;25589;51.552;13.424;2023-08-20T14:00:46;40.30;60.30
39919;DHT22;25589;51.552;13.424;2023-08-20T14:03:12;40.80;59.20
39919;DHT22;25589;51.552;13.424;2023-08-20T14:05:37;41.00;58.50
39919;DHT22;25589;51.552;13.424;2023-08-20T14:08:03;40.50;58.90
39919;DHT22;25589;51.552;13.424;2023-08-20T14:10:29;39.80;60.00
39919;DHT22;25589;51.552;13.424;2023-08-20T14:12:54;39.20;61.50
39919;DHT22;25589;51.552;13.424;2023-08-20T14:15:20;39.30;61.90
39919;DHT22;25589;51.552;13.424;2023-08-20T14:17:46;39.80;60.90
39919;DHT22;25589;51.552;13.424;2023-08-20T14:20:11;40.30;60.10
39919;DHT22;25589;51.552;13.424;2023-08-20T14:22:38;40.80;58.70
39919;DHT22;25589;51.552;13.424;2023-08-20T14:25:04;41.20;58.30
39919;DHT22;25589;51.552;13.424;2023-08-20T14:27:30;41.40;57.20
39919;DHT22;25589;51.552;13.424;2023-08-20T14:29:56;41.10;57.70
39919;DHT22;25589;51.552;13.424;2023-08-20T14:32:21;40.30;59.70
39919;DHT22;25589;51.552;13.424;2023-08-20T14:34:47;40.30;59.40
39919;DHT22;25589;51.552;13.424;2023-08-20T14:37:12;40.20;60.00
39919;DHT22;25589;51.552;13.424;2023-08-20T14:39:39;40.50;59.60
39919;DHT22;25589;51.552;13.424;2023-08-20T14:42:04;40.40;59.70
39919;DHT22;25589;51.552;13.424;2023-08-20T14:44:30;40.20;59.30
39919;DHT22;25589;51.552;13.424;2023-08-20T14:46:56;40.10;59.80
39919;DHT22;25589;51.552;13.424;2023-08-20T14:49:21;40.00;60.40
39919;DHT22;25589;51.552;13.424;2023-08-20T14:51:48;40.20;59.30
39919;DHT22;25589;51.552;13.424;2023-08-20T14:54:14;40.00;59.20
39919;DHT22;25589;51.552;13.424;2023-08-20T14:56:40;39.90;59.40
39919;DHT22;25589;51.552;13.424;2023-08-20T14:59:05;40.30;58.50
39919;DHT22;25589;51.552;13.424;2023-08-20T15:01:31;40.60;57.60
39919;DHT22;25589;51.552;13.424;2023-08-20T15:03:56;40.40;58.00
39919;DHT22;25589;51.552;13.424;2023-08-20T15:06:22;40.50;57.20
39919;DHT22;25589;51.552;13.424;2023-08-20T15:08:49;40.70;56.60
39919;DHT22;25589;51.552;13.424;2023-08-20T15:11:15;40.70;56.80
39919;DHT22;25589;51.552;13.424;2023-08-20T15:13:40;40.80;55.90
39919;DHT22;25589;51.552;13.424;2023-08-20T15:16:06;41.00;55.50
39919;DHT22;25589;51.552;13.424;2023-08-20T15:18:31;41.00;55.50
39919;DHT22;25589;51.552;13.424;2023-08-20T15:20:58;41.20;54.60
39919;DHT22;25589;51.552;13.424;2023-08-20T15:23:25;41.50;54.60
39919;DHT22;25589;51.552;13.424;2023-08-20T15:25:51;41.70;54.60
39919;DHT22;25589;51.552;13.424;2023-08-20T15:28:19;41.70;54.10
39919;DHT22;25589;51.552;13.424;2023-08-20T15:30:44;41.50;54.50